sensor_id;sensor_type;location;lat;lon;timestamp;pressure;altitude;pressure_sealevel;temperature;humidity
44148;BME280;29810;55.848;37.368;2022-10-26T00:01:43;99525.72;;;2.23;74.63
44148;BME280;29810;55.848;37.368;2022-10-26T00:04:44;99526.59;;;2.31;74.71
44148;BME280;29810;55.848;37.368;2022-10-26T00:07:46;99525.72;;;2.32;74.86
44148;BME280;29810;55.848;37.368;2022-10-26T00:10:48;99522.31;;;2.32;74.63
44148;BME280;29810;55.848;37.368;2022-10-26T00:13:50;99511.97;;;2.27;74.52
44148;BME280;29810;55.848;37.368;2022-10-26T00:16:52;99510.28;;;2.23;74.49
44148;BME280;29810;55.848;37.368;2022-10-26T00:19:53;99495.69;;;2.07;74.67
44148;BME280;29810;55.848;37.368;2022-10-26T00:22:55;99504.25;;;2.09;75.03
44148;BME280;29810;55.848;37.368;2022-10-26T00:25:56;99504.25;;;2.03;75.10
44148;BME280;29810;55.848;37.368;2022-10-26T00:28:58;99510.25;;;2.05;75.34
44148;BME280;29810;55.848;37.368;2022-10-26T00:32:00;99506.84;;;2.13;75.34
44148;BME280;29810;55.848;37.368;2022-10-26T00:35:01;99509.44;;;2.21;74.98
44148;BME280;29810;55.848;37.368;2022-10-26T00:38:04;99515.44;;;2.26;74.75
44148;BME280;29810;55.848;37.368;2022-10-26T00:41:06;99512.87;;;2.25;74.55
44148;BME280;29810;55.848;37.368;2022-10-26T00:48:03;99509.44;;;2.37;74.58
44148;BME280;29810;55.848;37.368;2022-10-26T00:51:11;99508.56;;;2.36;74.24
44148;BME280;29810;55.848;37.368;2022-10-26T00:54:17;99512.00;;;2.35;73.93
44148;BME280;29810;55.848;37.368;2022-10-26T00:57:19;99516.28;;;2.36;73.88
44148;BME280;29810;55.848;37.368;2022-10-26T01:00:21;99512.00;;;2.34;73.96
44148;BME280;29810;55.848;37.368;2022-10-26T01:03:23;99511.16;;;2.33;74.09
44148;BME280;29810;55.848;37.368;2022-10-26T01:06:29;99494.00;;;2.30;73.97
44148;BME280;29810;55.848;37.368;2022-10-26T01:09:32;99502.56;;;2.32;73.98
44148;BME280;29810;55.848;37.368;2022-10-26T01:12:34;99505.16;;;2.37;73.93
44148;BME280;29810;55.848;37.368;2022-10-26T01:22:38;99503.44;;;2.47;73.71
44148;BME280;29810;55.848;37.368;2022-10-26T01:29:13;99502.56;;;2.29;73.70
44148;BME280;29810;55.848;37.368;2022-10-26T01:32:59;99493.97;;;2.18;74.18
44148;BME280;29810;55.848;37.368;2022-10-26T01:36:19;99493.13;;;2.27;74.65
44148;BME280;29810;55.848;37.368;2022-10-26T01:39:30;99501.69;;;2.12;74.85
44148;BME280;29810;55.848;37.368;2022-10-26T01:42:40;99493.06;;;1.96;74.97
44148;BME280;29810;55.848;37.368;2022-10-26T01:45:46;99505.03;;;1.88;75.37
44148;BME280;29810;55.848;37.368;2022-10-26T01:48:50;99500.72;;;1.76;75.48
44148;BME280;29810;55.848;37.368;2022-10-26T01:51:54;99500.69;;;1.65;75.90
44148;BME280;29810;55.848;37.368;2022-10-26T01:55:04;99484.38;;;1.52;76.15
44148;BME280;29810;55.848;37.368;2022-10-26T02:17:45;99510.63;;;1.00;79.13
44148;BME280;29810;55.848;37.368;2022-10-26T02:20:52;99496.94;;;1.01;79.18
44148;BME280;29810;55.848;37.368;2022-10-26T02:23:58;99504.69;;;1.09;78.98
44148;BME280;29810;55.848;37.368;2022-10-26T02:27:00;99498.78;;;1.19;79.02
44148;BME280;29810;55.848;37.368;2022-10-26T02:30:05;99502.22;;;1.30;78.60
44148;BME280;29810;55.848;37.368;2022-10-26T02:33:09;99498.87;;;1.42;78.69
44148;BME280;29810;55.848;37.368;2022-10-26T02:36:19;99505.75;;;1.51;78.32
44148;BME280;29810;55.848;37.368;2022-10-26T02:39:25;99504.91;;;1.57;77.94
44148;BME280;29810;55.848;37.368;2022-10-26T02:42:29;99506.69;;;1.65;77.75
44148;BME280;29810;55.848;37.368;2022-10-26T02:45:35;99498.97;;;1.62;77.48
44148;BME280;29810;55.848;37.368;2022-10-26T02:48:38;99505.00;;;1.69;77.44
44148;BME280;29810;55.848;37.368;2022-10-26T02:51:48;99498.97;;;1.65;77.24
44148;BME280;29810;55.848;37.368;2022-10-26T02:55:24;99506.69;;;1.64;77.53
44148;BME280;29810;55.848;37.368;2022-10-26T02:58:30;99505.87;;;1.76;77.77
44148;BME280;29810;55.848;37.368;2022-10-26T03:01:34;99506.72;;;1.72;77.25
44148;BME280;29810;55.848;37.368;2022-10-26T03:04:35;99505.00;;;1.69;77.02
44148;BME280;29810;55.848;37.368;2022-10-26T03:07:37;99509.25;;;1.65;76.97
44148;BME280;29810;55.848;37.368;2022-10-26T03:10:43;99495.53;;;1.59;77.18
44148;BME280;29810;55.848;37.368;2022-10-26T03:13:45;99504.16;;;1.69;77.23
44148;BME280;29810;55.848;37.368;2022-10-26T03:16:47;99504.13;;;1.62;77.14
44148;BME280;29810;55.848;37.368;2022-10-26T03:19:48;99501.53;;;1.64;77.12
44148;BME280;29810;55.848;37.368;2022-10-26T03:22:49;99501.53;;;1.67;76.98
44148;BME280;29810;55.848;37.368;2022-10-26T03:25:57;99499.00;;;1.69;76.96
44148;BME280;29810;55.848;37.368;2022-10-26T03:28:58;99497.28;;;1.69;77.00
44148;BME280;29810;55.848;37.368;2022-10-26T03:32:00;99498.13;;;1.67;76.73
44148;BME280;29810;55.848;37.368;2022-10-26T03:35:02;99495.56;;;1.67;76.74
44148;BME280;29810;55.848;37.368;2022-10-26T03:38:04;99496.44;;;1.75;76.49
44148;BME280;29810;55.848;37.368;2022-10-26T03:41:05;99490.44;;;1.73;76.66
44148;BME280;29810;55.848;37.368;2022-10-26T03:44:07;99495.63;;;1.80;76.42
44148;BME280;29810;55.848;37.368;2022-10-26T03:47:08;99497.31;;;1.77;76.33
44148;BME280;29810;55.848;37.368;2022-10-26T03:50:14;99493.84;;;1.75;76.63
44148;BME280;29810;55.848;37.368;2022-10-26T03:53:16;99495.59;;;1.85;76.51
44148;BME280;29810;55.848;37.368;2022-10-26T03:56:17;99492.19;;;1.86;76.18
44148;BME280;29810;55.848;37.368;2022-10-26T03:59:18;99499.91;;;1.83;76.17
44148;BME280;29810;55.848;37.368;2022-10-26T04:02:20;99487.03;;;1.86;76.11
44148;BME280;29810;55.848;37.368;2022-10-26T04:05:23;99491.34;;;1.92;75.91
44148;BME280;29810;55.848;37.368;2022-10-26T04:08:25;99498.22;;;1.93;76.00
44148;BME280;29810;55.848;37.368;2022-10-26T04:11:29;99499.94;;;1.94;75.97
44148;BME280;29810;55.848;37.368;2022-10-26T04:14:31;99500.78;;;2.04;75.81
44148;BME280;29810;55.848;37.368;2022-10-26T04:17:35;99508.53;;;2.08;75.32
44148;BME280;29810;55.848;37.368;2022-10-26T04:20:37;99500.81;;;2.08;75.17
44148;BME280;29810;55.848;37.368;2022-10-26T04:23:39;99502.53;;;2.14;75.16
44148;BME280;29810;55.848;37.368;2022-10-26T04:26:40;99500.84;;;2.22;74.96
44148;BME280;29810;55.848;37.368;2022-10-26T04:29:42;99504.28;;;2.21;74.58
44148;BME280;29810;55.848;37.368;2022-10-26T04:32:43;99511.97;;;2.18;74.66
44148;BME280;29810;55.848;37.368;2022-10-26T04:35:48;99515.44;;;2.25;74.78
44148;BME280;29810;55.848;37.368;2022-10-26T04:38:55;99514.56;;;2.32;74.56
44148;BME280;29810;55.848;37.368;2022-10-26T04:42:00;99521.44;;;2.44;74.32
44148;BME280;29810;55.848;37.368;2022-10-26T04:45:02;99512.87;;;2.39;74.02
44148;BME280;29810;55.848;37.368;2022-10-26T04:48:10;99531.78;;;2.56;74.09
44148;BME280;29810;55.848;37.368;2022-10-26T04:51:11;99523.19;;;2.59;73.57
44148;BME280;29810;55.848;37.368;2022-10-26T04:54:13;99519.75;;;2.58;73.46
44148;BME280;29810;55.848;37.368;2022-10-26T04:57:15;99522.34;;;2.63;73.33
44148;BME280;29810;55.848;37.368;2022-10-26T05:00:16;99517.16;;;2.60;73.18
44148;BME280;29810;55.848;37.368;2022-10-26T05:03:18;99523.19;;;2.60;73.25
44148;BME280;29810;55.848;37.368;2022-10-26T05:06:20;99516.34;;;2.65;73.19
44148;BME280;29810;55.848;37.368;2022-10-26T05:09:22;99513.75;;;2.67;72.92
44148;BME280;29810;55.848;37.368;2022-10-26T05:12:23;99512.87;;;2.73;72.76
44148;BME280;29810;55.848;37.368;2022-10-26T05:15:25;99506.88;;;2.81;72.61
44148;BME280;29810;55.848;37.368;2022-10-26T05:18:28;99490.56;;;2.75;72.21
44148;BME280;29810;55.848;37.368;2022-10-26T05:21:29;99507.72;;;2.96;71.95
44148;BME280;29810;55.848;37.368;2022-10-26T05:24:31;99511.16;;;3.00;71.68
44148;BME280;29810;55.848;37.368;2022-10-26T05:27:33;99513.72;;;3.01;71.61
44148;BME280;29810;55.848;37.368;2022-10-26T05:30:34;99499.16;;;2.80;71.37
44148;BME280;29810;55.848;37.368;2022-10-26T05:33:36;99502.59;;;2.79;71.82
44148;BME280;29810;55.848;37.368;2022-10-26T05:36:37;99492.28;;;2.82;71.48
44148;BME280;29810;55.848;37.368;2022-10-26T05:39:38;99504.31;;;2.80;71.53
44148;BME280;29810;55.848;37.368;2022-10-26T05:42:40;99508.59;;;2.86;71.50
44148;BME280;29810;55.848;37.368;2022-10-26T05:45:42;99516.31;;;2.90;71.20
44148;BME280;29810;55.848;37.368;2022-10-26T05:48:46;99512.87;;;2.97;70.95
44148;BME280;29810;55.848;37.368;2022-10-26T05:51:48;99517.16;;;3.08;70.56
44148;BME280;29810;55.848;37.368;2022-10-26T05:54:50;99522.31;;;3.12;70.37
44148;BME280;29810;55.848;37.368;2022-10-26T05:57:52;99519.72;;;3.17;69.96
44148;BME280;29810;55.848;37.368;2022-10-26T06:01:18;99511.13;;;3.24;69.90
44148;BME280;29810;55.848;37.368;2022-10-26T06:04:44;99518.78;;;3.46;69.05
44148;BME280;29810;55.848;37.368;2022-10-26T06:07:48;99517.84;;;3.59;68.78
44148;BME280;29810;55.848;37.368;2022-10-26T06:10:51;99517.88;;;3.61;68.34
44148;BME280;29810;55.848;37.368;2022-10-26T06:13:54;99515.31;;;3.61;68.39
44148;BME280;29810;55.848;37.368;2022-10-26T06:20:32;99523.75;;;3.94;68.34
44148;BME280;29810;55.848;37.368;2022-10-26T06:30:17;99511.50;;;4.27;66.50
44148;BME280;29810;55.848;37.368;2022-10-26T06:33:20;99506.34;;;4.30;65.69
44148;BME280;29810;55.848;37.368;2022-10-26T06:36:24;99502.97;;;4.20;65.38
44148;BME280;29810;55.848;37.368;2022-10-26T06:39:30;99510.72;;;4.19;65.39
44148;BME280;29810;55.848;37.368;2022-10-26T06:42:32;99511.53;;;4.21;65.43
44148;BME280;29810;55.848;37.368;2022-10-26T06:45:34;99509.03;;;4.11;65.87
44148;BME280;29810;55.848;37.368;2022-10-26T06:52:14;99503.78;;;4.25;65.03
44148;BME280;29810;55.848;37.368;2022-10-26T06:55:17;99504.69;;;4.21;65.42
44148;BME280;29810;55.848;37.368;2022-10-26T06:58:21;99502.91;;;4.28;65.43
44148;BME280;29810;55.848;37.368;2022-10-26T07:01:24;99507.97;;;4.40;64.81
44148;BME280;29810;55.848;37.368;2022-10-26T07:04:25;99517.38;;;4.52;64.47
44148;BME280;29810;55.848;37.368;2022-10-26T07:07:28;99525.00;;;4.66;63.59
44148;BME280;29810;55.848;37.368;2022-10-26T07:10:31;99505.34;;;4.48;63.38
44148;BME280;29810;55.848;37.368;2022-10-26T07:13:35;99521.59;;;4.64;63.34
44148;BME280;29810;55.848;37.368;2022-10-26T07:16:36;99514.50;;;4.85;62.91
44148;BME280;29810;55.848;37.368;2022-10-26T07:19:38;99513.44;;;5.09;62.37
44148;BME280;29810;55.848;37.368;2022-10-26T07:22:40;99511.56;;;5.23;61.52
44148;BME280;29810;55.848;37.368;2022-10-26T07:25:43;99511.50;;;5.31;61.74
44148;BME280;29810;55.848;37.368;2022-10-26T07:28:47;99504.44;;;5.47;61.18
44148;BME280;29810;55.848;37.368;2022-10-26T07:31:50;99512.97;;;5.54;60.67
44148;BME280;29810;55.848;37.368;2022-10-26T07:34:52;99505.06;;;5.66;60.28
44148;BME280;29810;55.848;37.368;2022-10-26T07:37:57;99505.59;;;5.91;59.81
44148;BME280;29810;55.848;37.368;2022-10-26T07:41:00;99508.94;;;6.04;59.08
44148;BME280;29810;55.848;37.368;2022-10-26T07:44:02;99509.62;;;6.17;59.09
44148;BME280;29810;55.848;37.368;2022-10-26T07:47:04;99506.81;;;6.31;58.69
44148;BME280;29810;55.848;37.368;2022-10-26T07:50:06;99504.09;;;6.39;58.14
44148;BME280;29810;55.848;37.368;2022-10-26T07:53:08;99499.00;;;6.34;57.94
44148;BME280;29810;55.848;37.368;2022-10-26T07:56:10;99510.19;;;6.36;58.07
44148;BME280;29810;55.848;37.368;2022-10-26T07:59:11;99504.09;;;6.39;57.76
44148;BME280;29810;55.848;37.368;2022-10-26T08:02:13;99501.38;;;6.48;57.54
44148;BME280;29810;55.848;37.368;2022-10-26T08:05:16;99509.06;;;6.54;57.38
44148;BME280;29810;55.848;37.368;2022-10-26T08:08:18;99502.62;;;6.78;56.93
44148;BME280;29810;55.848;37.368;2022-10-26T08:11:19;99501.69;;;6.83;56.23
44148;BME280;29810;55.848;37.368;2022-10-26T08:14:21;99500.78;;;6.85;56.26
44148;BME280;29810;55.848;37.368;2022-10-26T08:17:23;99504.91;;;6.97;55.99
44148;BME280;29810;55.848;37.368;2022-10-26T08:20:24;99507.25;;;7.11;55.59
44148;BME280;29810;55.848;37.368;2022-10-26T08:23:26;99505.56;;;7.07;55.31
44148;BME280;29810;55.848;37.368;2022-10-26T08:26:27;99498.53;;;7.15;55.30
44148;BME280;29810;55.848;37.368;2022-10-26T08:29:29;99494.03;;;7.25;54.56
44148;BME280;29810;55.848;37.368;2022-10-26T08:32:32;99502.09;;;7.08;54.78
44148;BME280;29810;55.848;37.368;2022-10-26T08:35:33;99497.81;;;7.07;54.69
44148;BME280;29810;55.848;37.368;2022-10-26T08:38:35;99495.34;;;7.01;54.80
44148;BME280;29810;55.848;37.368;2022-10-26T08:41:40;99500.34;;;7.10;54.21
44148;BME280;29810;55.848;37.368;2022-10-26T08:44:47;99492.75;;;6.99;54.54
44148;BME280;29810;55.848;37.368;2022-10-26T08:47:52;99500.25;;;7.15;54.18
44148;BME280;29810;55.848;37.368;2022-10-26T08:51:02;99500.34;;;7.10;54.02
44148;BME280;29810;55.848;37.368;2022-10-26T08:54:18;99502.28;;;6.99;54.20
44148;BME280;29810;55.848;37.368;2022-10-26T08:57:37;99506.25;;;7.18;54.10
44148;BME280;29810;55.848;37.368;2022-10-26T09:00:41;99499.94;;;7.32;54.00
44148;BME280;29810;55.848;37.368;2022-10-26T09:03:42;99501.88;;;7.22;53.82
44148;BME280;29810;55.848;37.368;2022-10-26T09:13:28;99511.50;;;7.15;53.63
44148;BME280;29810;55.848;37.368;2022-10-26T09:17:04;99508.84;;;7.18;53.67
44148;BME280;29810;55.848;37.368;2022-10-26T09:30:15;99503.66;;;7.18;53.57
44148;BME280;29810;55.848;37.368;2022-10-26T09:33:23;99512.41;;;7.12;53.55
44148;BME280;29810;55.848;37.368;2022-10-26T09:36:26;99515.84;;;7.13;53.51
44148;BME280;29810;55.848;37.368;2022-10-26T09:39:35;99507.22;;;7.12;53.80
44148;BME280;29810;55.848;37.368;2022-10-26T09:42:53;99506.19;;;7.21;53.41
44148;BME280;29810;55.848;37.368;2022-10-26T09:45:58;99513.22;;;7.15;53.98
44148;BME280;29810;55.848;37.368;2022-10-26T09:49:07;99509.94;;;7.05;54.04
44148;BME280;29810;55.848;37.368;2022-10-26T09:52:11;99506.47;;;7.06;53.93
44148;BME280;29810;55.848;37.368;2022-10-26T09:55:12;99514.28;;;7.03;54.16
44148;BME280;29810;55.848;37.368;2022-10-26T09:58:25;99506.53;;;7.03;54.15
44148;BME280;29810;55.848;37.368;2022-10-26T10:01:33;99502.25;;;7.00;54.59
44148;BME280;29810;55.848;37.368;2022-10-26T10:04:35;99502.34;;;6.95;54.43
44148;BME280;29810;55.848;37.368;2022-10-26T10:07:46;99506.91;;;6.81;54.71
44148;BME280;29810;55.848;37.368;2022-10-26T10:11:04;99507.69;;;6.86;54.83
44148;BME280;29810;55.848;37.368;2022-10-26T10:14:08;99513.72;;;6.87;54.73
44148;BME280;29810;55.848;37.368;2022-10-26T10:17:20;99505.19;;;6.80;54.57
44148;BME280;29810;55.848;37.368;2022-10-26T10:20:30;99508.50;;;6.88;54.81
44148;BME280;29810;55.848;37.368;2022-10-26T10:23:34;99501.00;;;6.71;54.61
44148;BME280;29810;55.848;37.368;2022-10-26T10:26:55;99505.25;;;6.77;54.54
44148;BME280;29810;55.848;37.368;2022-10-26T10:29:58;99506.37;;;7.10;54.64
44148;BME280;29810;55.848;37.368;2022-10-26T10:33:09;99499.59;;;7.05;54.10
44148;BME280;29810;55.848;37.368;2022-10-26T10:36:20;99497.78;;;7.08;54.16
44148;BME280;29810;55.848;37.368;2022-10-26T10:42:41;99502.19;;;7.05;54.32
44148;BME280;29810;55.848;37.368;2022-10-26T10:45:47;99500.53;;;7.01;54.35
44148;BME280;29810;55.848;37.368;2022-10-26T10:49:01;99503.22;;;6.94;54.35
44148;BME280;29810;55.848;37.368;2022-10-26T10:52:03;99497.25;;;6.89;54.58
44148;BME280;29810;55.848;37.368;2022-10-26T10:58:16;99497.78;;;7.08;54.61
44148;BME280;29810;55.848;37.368;2022-10-26T11:01:37;99494.44;;;7.03;54.38
44148;BME280;29810;55.848;37.368;2022-10-26T11:04:59;99507.41;;;7.02;54.36
44148;BME280;29810;55.848;37.368;2022-10-26T11:11:27;99506.63;;;7.43;54.54
44148;BME280;29810;55.848;37.368;2022-10-26T11:14:34;99503.66;;;7.18;54.38
44148;BME280;29810;55.848;37.368;2022-10-26T11:17:59;99502.47;;;7.36;54.68
44148;BME280;29810;55.848;37.368;2022-10-26T11:21:09;99500.34;;;7.10;55.09
44148;BME280;29810;55.848;37.368;2022-10-26T11:24:30;99501.16;;;7.13;55.20
44148;BME280;29810;55.848;37.368;2022-10-26T11:27:41;99495.59;;;6.85;55.18
44148;BME280;29810;55.848;37.368;2022-10-26T11:30:52;99491.50;;;6.72;55.79
44148;BME280;29810;55.848;37.368;2022-10-26T11:34:09;99490.41;;;6.85;55.91
44148;BME280;29810;55.848;37.368;2022-10-26T11:37:21;99484.13;;;6.99;55.77
44148;BME280;29810;55.848;37.368;2022-10-26T11:41:04;99486.12;;;6.83;55.55
44148;BME280;29810;55.848;37.368;2022-10-26T11:44:27;99478.13;;;6.95;56.16
44148;BME280;29810;55.848;37.368;2022-10-26T11:47:38;99484.38;;;6.83;55.48
44148;BME280;29810;55.848;37.368;2022-10-26T11:50:46;99480.31;;;6.70;56.03
44148;BME280;29810;55.848;37.368;2022-10-26T11:53:50;99483.06;;;6.60;56.04
44148;BME280;29810;55.848;37.368;2022-10-26T11:56:53;99482.34;;;6.52;56.56
44148;BME280;29810;55.848;37.368;2022-10-26T12:00:14;99485.84;;;6.46;56.66
44148;BME280;29810;55.848;37.368;2022-10-26T12:03:30;99479.75;;;6.51;56.50
44148;BME280;29810;55.848;37.368;2022-10-26T12:06:33;99481.66;;;6.39;56.36
44148;BME280;29810;55.848;37.368;2022-10-26T12:09:37;99477.47;;;6.30;56.40
44148;BME280;29810;55.848;37.368;2022-10-26T12:13:00;99472.28;;;6.30;56.45
44148;BME280;29810;55.848;37.368;2022-10-26T12:19:57;99475.81;;;6.26;57.24
44148;BME280;29810;55.848;37.368;2022-10-26T12:23:03;99478.50;;;6.20;57.85
44148;BME280;29810;55.848;37.368;2022-10-26T12:29:46;99477.53;;;6.26;57.51
44148;BME280;29810;55.848;37.368;2022-10-26T12:33:01;99474.19;;;6.19;57.57
44148;BME280;29810;55.848;37.368;2022-10-26T12:39:47;99471.59;;;6.19;56.97
44148;BME280;29810;55.848;37.368;2022-10-26T12:42:49;99481.41;;;5.99;56.93
44148;BME280;29810;55.848;37.368;2022-10-26T12:53:19;99471.81;;;6.04;57.35
44148;BME280;29810;55.848;37.368;2022-10-26T12:56:41;99476.94;;;6.08;57.75
44148;BME280;29810;55.848;37.368;2022-10-26T12:59:54;99471.97;;;5.91;57.65
44148;BME280;29810;55.848;37.368;2022-10-26T13:07:16;99469.41;;;5.90;58.26
44148;BME280;29810;55.848;37.368;2022-10-26T13:10:22;99470.44;;;5.76;58.57
44148;BME280;29810;55.848;37.368;2022-10-26T13:13:25;99463.78;;;5.58;58.49
44148;BME280;29810;55.848;37.368;2022-10-26T13:16:27;99459.50;;;5.53;58.71
44148;BME280;29810;55.848;37.368;2022-10-26T13:19:43;99478.56;;;5.47;58.97
44148;BME280;29810;55.848;37.368;2022-10-26T13:22:46;99466.53;;;5.43;59.48
44148;BME280;29810;55.848;37.368;2022-10-26T13:26:12;99467.53;;;5.31;59.15
44148;BME280;29810;55.848;37.368;2022-10-26T13:29:15;99468.37;;;5.31;59.87
44148;BME280;29810;55.848;37.368;2022-10-26T13:32:16;99458.22;;;5.16;59.65
44148;BME280;29810;55.848;37.368;2022-10-26T13:35:20;99465.16;;;5.11;60.04
44148;BME280;29810;55.848;37.368;2022-10-26T13:38:26;99460.06;;;5.06;60.49
44148;BME280;29810;55.848;37.368;2022-10-26T13:41:39;99469.50;;;5.09;60.57
44148;BME280;29810;55.848;37.368;2022-10-26T13:44:52;99466.97;;;5.03;60.91
44148;BME280;29810;55.848;37.368;2022-10-26T13:48:09;99472.19;;;5.00;61.41
44148;BME280;29810;55.848;37.368;2022-10-26T13:51:22;99474.00;;;4.88;61.20
44148;BME280;29810;55.848;37.368;2022-10-26T13:54:40;99470.59;;;4.86;61.56
44148;BME280;29810;55.848;37.368;2022-10-26T13:57:45;99471.53;;;4.79;62.07
44148;BME280;29810;55.848;37.368;2022-10-26T14:04:15;99469.88;;;4.70;62.22
44148;BME280;29810;55.848;37.368;2022-10-26T14:07:21;99482.81;;;4.67;62.93
44148;BME280;29810;55.848;37.368;2022-10-26T14:10:35;99481.19;;;4.57;62.73
44148;BME280;29810;55.848;37.368;2022-10-26T14:13:38;99486.38;;;4.55;62.82
44148;BME280;29810;55.848;37.368;2022-10-26T14:16:40;99476.91;;;4.53;63.20
44148;BME280;29810;55.848;37.368;2022-10-26T14:19:46;99482.91;;;4.53;63.45
44148;BME280;29810;55.848;37.368;2022-10-26T14:22:49;99490.59;;;4.64;63.31
44148;BME280;29810;55.848;37.368;2022-10-26T14:25:54;99486.47;;;4.44;63.47
44148;BME280;29810;55.848;37.368;2022-10-26T14:29:00;99483.03;;;4.39;64.37
44148;BME280;29810;55.848;37.368;2022-10-26T14:32:20;99492.47;;;4.40;64.66
44148;BME280;29810;55.848;37.368;2022-10-26T14:35:30;99486.44;;;4.43;65.14
44148;BME280;29810;55.848;37.368;2022-10-26T14:38:38;99495.16;;;4.33;65.16
44148;BME280;29810;55.848;37.368;2022-10-26T14:41:43;99494.28;;;4.32;65.21
44148;BME280;29810;55.848;37.368;2022-10-26T14:44:45;99494.31;;;4.24;65.28
44148;BME280;29810;55.848;37.368;2022-10-26T14:47:48;99485.75;;;4.22;65.46
44148;BME280;29810;55.848;37.368;2022-10-26T14:54:04;99487.50;;;4.17;66.58
44148;BME280;29810;55.848;37.368;2022-10-26T14:57:33;99498.66;;;4.19;66.30
44148;BME280;29810;55.848;37.368;2022-10-26T15:00:35;99494.34;;;4.23;66.75
44148;BME280;29810;55.848;37.368;2022-10-26T15:03:37;99500.38;;;4.20;66.49
44148;BME280;29810;55.848;37.368;2022-10-26T15:06:45;99501.25;;;4.18;66.67
44148;BME280;29810;55.848;37.368;2022-10-26T15:09:50;99503.84;;;4.16;67.26
44148;BME280;29810;55.848;37.368;2022-10-26T15:12:53;99500.44;;;4.11;67.28
44148;BME280;29810;55.848;37.368;2022-10-26T15:16:17;99500.44;;;4.11;67.41
44148;BME280;29810;55.848;37.368;2022-10-26T15:19:19;99501.31;;;4.07;67.81
44148;BME280;29810;55.848;37.368;2022-10-26T15:22:25;99502.22;;;4.03;67.82
44148;BME280;29810;55.848;37.368;2022-10-26T15:25:32;99493.62;;;3.97;68.66
44148;BME280;29810;55.848;37.368;2022-10-26T15:28:38;99495.38;;;3.94;69.47
44148;BME280;29810;55.848;37.368;2022-10-26T15:31:40;99497.06;;;4.03;67.93
44148;BME280;29810;55.848;37.368;2022-10-26T15:34:47;99500.53;;;3.89;68.74
44148;BME280;29810;55.848;37.368;2022-10-26T15:37:50;99499.72;;;3.84;69.65
44148;BME280;29810;55.848;37.368;2022-10-26T15:40:53;99498.87;;;3.79;69.67
44148;BME280;29810;55.848;37.368;2022-10-26T15:43:56;99500.59;;;3.80;69.83
44148;BME280;29810;55.848;37.368;2022-10-26T15:47:00;99499.75;;;3.79;70.08
44148;BME280;29810;55.848;37.368;2022-10-26T15:50:02;99496.31;;;3.80;70.47
44148;BME280;29810;55.848;37.368;2022-10-26T15:53:12;99509.19;;;3.79;70.31
44148;BME280;29810;55.848;37.368;2022-10-26T15:56:22;99498.87;;;3.79;71.30
44148;BME280;29810;55.848;37.368;2022-10-26T15:59:28;99501.47;;;3.80;71.11
44148;BME280;29810;55.848;37.368;2022-10-26T16:02:33;99498.03;;;3.77;70.77
44148;BME280;29810;55.848;37.368;2022-10-26T16:05:37;99485.16;;;3.71;71.07
44148;BME280;29810;55.848;37.368;2022-10-26T16:08:39;99500.63;;;3.75;71.20
44148;BME280;29810;55.848;37.368;2022-10-26T16:11:42;99502.34;;;3.76;71.11
44148;BME280;29810;55.848;37.368;2022-10-26T16:14:44;99506.66;;;3.74;71.26
44148;BME280;29810;55.848;37.368;2022-10-26T16:17:46;99499.78;;;3.72;71.18
44148;BME280;29810;55.848;37.368;2022-10-26T16:20:47;99499.78;;;3.72;71.20
44148;BME280;29810;55.848;37.368;2022-10-26T16:23:53;99511.81;;;3.71;71.49
44148;BME280;29810;55.848;37.368;2022-10-26T16:26:55;99504.94;;;3.70;71.57
44148;BME280;29810;55.848;37.368;2022-10-26T16:29:57;99498.94;;;3.67;71.43
44148;BME280;29810;55.848;37.368;2022-10-26T16:32:58;99503.25;;;3.66;71.82
44148;BME280;29810;55.848;37.368;2022-10-26T16:36:01;99495.53;;;3.58;71.92
44148;BME280;29810;55.848;37.368;2022-10-26T16:39:03;99496.41;;;3.57;71.91
44148;BME280;29810;55.848;37.368;2022-10-26T16:42:05;99492.09;;;3.61;71.66
44148;BME280;29810;55.848;37.368;2022-10-26T16:45:07;99499.84;;;3.61;71.41
44148;BME280;29810;55.848;37.368;2022-10-26T16:48:08;99504.97;;;3.58;71.53
44148;BME280;29810;55.848;37.368;2022-10-26T16:51:23;99502.41;;;3.58;71.45
44148;BME280;29810;55.848;37.368;2022-10-26T16:54:25;99500.69;;;3.61;71.63
44148;BME280;29810;55.848;37.368;2022-10-26T16:57:26;99499.84;;;3.55;71.50
44148;BME280;29810;55.848;37.368;2022-10-26T17:00:28;99490.44;;;3.49;71.62
44148;BME280;29810;55.848;37.368;2022-10-26T17:03:33;99494.72;;;3.47;71.57
44148;BME280;29810;55.848;37.368;2022-10-26T17:06:36;99495.59;;;3.44;72.00
44148;BME280;29810;55.848;37.368;2022-10-26T17:09:37;99499.88;;;3.42;71.96
44148;BME280;29810;55.848;37.368;2022-10-26T17:12:39;99498.19;;;3.41;71.79
44148;BME280;29810;55.848;37.368;2022-10-26T17:15:40;99501.59;;;3.42;71.96
44148;BME280;29810;55.848;37.368;2022-10-26T17:18:42;99495.59;;;3.43;71.90
44148;BME280;29810;55.848;37.368;2022-10-26T17:21:44;99494.78;;;3.35;72.02
44148;BME280;29810;55.848;37.368;2022-10-26T17:24:46;99493.88;;;3.36;72.15
44148;BME280;29810;55.848;37.368;2022-10-26T17:27:50;99493.06;;;3.32;72.53
44148;BME280;29810;55.848;37.368;2022-10-26T17:31:04;99501.62;;;3.36;72.50
44148;BME280;29810;55.848;37.368;2022-10-26T17:34:05;99484.44;;;3.36;72.32
44148;BME280;29810;55.848;37.368;2022-10-26T17:37:08;99492.19;;;3.28;72.25
44148;BME280;29810;55.848;37.368;2022-10-26T17:40:10;99483.63;;;3.29;72.23
44148;BME280;29810;55.848;37.368;2022-10-26T17:43:11;99483.59;;;3.28;72.40
44148;BME280;29810;55.848;37.368;2022-10-26T17:46:18;99484.47;;;3.25;72.28
44148;BME280;29810;55.848;37.368;2022-10-26T17:49:20;99484.44;;;3.33;72.73
44148;BME280;29810;55.848;37.368;2022-10-26T17:52:21;99481.00;;;3.33;72.33
44148;BME280;29810;55.848;37.368;2022-10-26T17:55:25;99489.59;;;3.36;72.05
44148;BME280;29810;55.848;37.368;2022-10-26T17:58:26;99482.72;;;3.38;72.08
44148;BME280;29810;55.848;37.368;2022-10-26T18:01:29;99487.00;;;3.38;72.06
44148;BME280;29810;55.848;37.368;2022-10-26T18:04:31;99489.59;;;3.38;71.84
44148;BME280;29810;55.848;37.368;2022-10-26T18:07:33;99481.84;;;3.44;71.84